Time;durP1;ratioP1;P1;durP2;ratioP2;P2;SDS_P1;SDS_P2;PMS_P1;PMS_P2;Temp;Humidity;BMP_temperature;BMP_pressure;BME280_temperature;BME280_humidity;BME280_pressure;Samples;Min_cycle;Max_cycle;Signal;HPM_P1;HPM_P2
2022/03/25 00:02:19;;;;;;;32.80;20.10;;;;;;;5.95;45.20;101102.73;105999;1276;108899;-75
2022/03/25 00:04:52;;;;;;;33.20;20.20;;;;;;;5.93;45.19;101101.88;105842;1275;138712;-76
2022/03/25 00:07:26;;;;;;;34.50;20.00;;;;;;;5.91;45.19;101104.09;105954;1276;97819;-75
2022/03/25 00:09:58;;;;;;;34.20;19.20;;;;;;;5.88;45.20;101106.14;105901;1276;138156;-76
2022/03/25 00:12:30;;;;;;;37.00;20.50;;;;;;;5.84;45.19;101105.27;106005;1275;112187;-75
2022/03/25 00:15:02;;;;;;;32.00;19.80;;;;;;;5.82;45.23;101105.79;105993;1276;108925;-75
2022/03/25 00:17:34;;;;;;;36.10;20.30;;;;;;;5.79;45.24;101108.90;105868;1276;137910;-77
2022/03/25 00:20:09;;;;;;;32.40;18.80;;;;;;;5.77;45.44;101107.87;105973;1276;97841;-75
2022/03/25 00:22:41;;;;;;;30.50;20.30;;;;;;;5.74;45.22;101108.37;107427;1276;137679;-76
2022/03/25 00:25:13;;;;;;;32.70;18.70;;;;;;;5.72;45.59;101107.84;107522;1276;109624;-77
2022/03/25 00:27:45;;;;;;;32.60;19.70;;;;;;;5.71;45.44;101105.25;107220;1276;138527;-75
2022/03/25 00:30:18;;;;;;;31.40;20.00;;;;;;;5.68;45.71;101107.49;106488;1276;108780;-76
2022/03/25 00:32:50;;;;;;;32.40;19.20;;;;;;;5.66;45.64;101103.52;106021;1276;97950;-75
2022/03/25 00:35:23;;;;;;;33.80;19.50;;;;;;;5.63;45.85;101100.77;105881;1276;137732;-75
2022/03/25 00:37:55;;;;;;;32.90;20.00;;;;;;;5.63;45.60;101098.52;106004;1276;112068;-75
2022/03/25 00:40:27;;;;;;;30.30;19.50;;;;;;;5.62;45.70;101096.11;105874;1276;137913;-76
2022/03/25 00:43:00;;;;;;;38.90;20.20;;;;;;;5.60;45.70;101093.88;105939;1276;108475;-76
2022/03/25 00:45:32;;;;;;;34.10;21.20;;;;;;;5.60;45.68;101093.17;105795;1276;138066;-76
2022/03/25 00:48:04;;;;;;;34.40;19.00;;;;;;;5.57;45.73;101090.58;107502;1276;96004;-76
2022/03/25 00:50:37;;;;;;;31.80;20.00;;;;;;;5.55;45.56;101086.24;107531;1276;112603;-77
2022/03/25 00:53:10;;;;;;;37.90;19.40;;;;;;;5.52;45.89;101088.48;107378;1276;138321;-76
2022/03/25 00:55:42;;;;;;;36.90;20.20;;;;;;;5.51;45.94;101090.73;107526;1276;107822;-76
2022/03/25 00:58:14;;;;;;;37.50;20.00;;;;;;;5.48;45.97;101087.80;107258;1276;138988;-77
2022/03/25 01:00:47;;;;;;;39.80;20.50;;;;;;;5.47;46.04;101084.52;105974;1276;97849;-76
2022/03/25 01:03:19;;;;;;;31.90;20.50;;;;;;;5.44;45.94;101084.52;105947;1276;111761;-74
2022/03/25 01:05:53;;;;;;;35.70;20.70;;;;;;;5.43;46.03;101077.79;107279;1276;137675;-75
2022/03/25 01:08:27;;;;;;;33.40;20.60;;;;;;;5.42;46.04;101078.99;106011;1276;109095;-75
2022/03/25 01:10:59;;;;;;;35.30;19.70;;;;;;;5.40;46.08;101079.33;107426;1276;138639;-77
2022/03/25 01:13:33;;;;;;;33.30;20.20;;;;;;;5.39;46.06;101083.13;106441;1276;97870;-75
2022/03/25 01:16:08;;;;;;;31.00;19.10;;;;;;;5.37;46.09;101086.38;105872;1276;136835;-75
2022/03/25 01:18:42;;;;;;;36.90;20.40;;;;;;;5.36;46.20;101083.80;107126;1276;107633;-76
2022/03/25 01:21:16;;;;;;;33.50;19.60;;;;;;;5.32;46.24;101085.16;107403;1276;108083;-75
2022/03/25 01:23:48;;;;;;;32.50;19.30;;;;;;;5.31;46.23;101089.13;107280;1276;137916;-74
2022/03/25 01:26:20;;;;;;;36.10;19.50;;;;;;;5.29;46.17;101083.61;107520;1276;96140;-75
2022/03/25 01:28:52;;;;;;;34.20;19.30;;;;;;;5.26;46.18;101079.81;107422;1276;139541;-75
2022/03/25 01:31:24;;;;;;;34.50;19.70;;;;;;;5.25;46.25;101083.27;107410;1277;107681;-75
2022/03/25 01:33:56;;;;;;;31.80;19.90;;;;;;;5.23;46.27;101080.67;107371;1275;138013;-75
2022/03/25 01:36:29;;;;;;;35.10;20.20;;;;;;;5.20;46.35;101082.04;107367;1276;96169;-75
2022/03/25 01:39:02;;;;;;;32.70;19.70;;;;;;;5.16;46.54;101080.98;107547;1276;95958;-76
2022/03/25 01:41:34;;;;;;;34.20;20.20;;;;;;;5.14;46.37;101085.98;107396;1276;137742;-76
2022/03/25 01:44:09;;;;;;;33.30;18.90;;;;;;;5.11;46.17;101087.17;107529;1275;108108;-76
2022/03/25 01:46:41;;;;;;;37.90;20.20;;;;;;;5.09;46.26;101092.52;107402;1276;137856;-76
2022/03/25 01:49:13;;;;;;;35.20;20.30;;;;;;;5.09;46.30;101092.17;107520;1276;96021;-75
2022/03/25 01:51:45;;;;;;;34.40;20.60;;;;;;;5.08;46.33;101094.06;107447;1276;138799;-76
2022/03/25 01:54:22;;;;;;;38.40;22.00;;;;;;;5.07;46.42;101089.41;107404;1276;112555;-75
2022/03/25 01:57:00;;;;;;;36.10;20.70;;;;;;;5.06;46.44;101091.99;107523;1276;106481;-75
2022/03/25 01:59:33;;;;;;;35.70;21.30;;;;;;;5.04;46.74;101087.52;107286;1276;138497;-75
2022/03/25 02:02:07;;;;;;;39.20;22.00;;;;;;;5.01;46.80;101087.29;107381;1277;96237;-75
2022/03/25 02:04:41;;;;;;;41.40;22.80;;;;;;;4.98;47.07;101093.66;107317;1276;137840;-76
2022/03/25 02:07:13;;;;;;;39.50;22.40;;;;;;;4.94;47.01;101090.38;107425;1275;112650;-75
2022/03/25 02:09:45;;;;;;;37.10;22.80;;;;;;;4.90;47.15;101093.64;106664;1276;138669;-73
2022/03/25 02:12:17;;;;;;;41.90;23.30;;;;;;;4.86;47.20;101093.80;107259;1276;107920;-74
2022/03/25 02:14:49;;;;;;;41.30;23.50;;;;;;;4.81;47.43;101091.17;107482;1276;96080;-75
2022/03/25 02:17:21;;;;;;;41.60;24.20;;;;;;;4.75;47.62;101091.67;107258;1276;139572;-75
2022/03/25 02:19:54;;;;;;;40.30;23.20;;;;;;;4.69;47.72;101088.89;107537;1276;112769;-76
2022/03/25 02:22:26;;;;;;;41.60;23.70;;;;;;;4.65;47.83;101094.02;107450;1276;137952;-76
2022/03/25 02:24:58;;;;;;;43.50;24.20;;;;;;;4.59;47.85;101092.61;106410;1276;109008;-74
2022/03/25 02:59:26;;;;;;;41.10;24.00;;;;;;;4.14;49.07;101100.94;106196;1263;140128;-93
2022/03/25 03:01:59;;;;;;;42.30;24.50;;;;;;;4.12;49.26;101100.56;105959;1274;106727;-93
2022/03/25 03:04:32;;;;;;;44.50;25.10;;;;;;;4.11;49.18;101105.53;105884;1276;97986;-89
2022/03/25 03:07:05;;;;;;;43.20;24.90;;;;;;;4.08;49.24;101105.86;105776;1276;138426;-90
2022/03/25 03:09:37;;;;;;;38.70;24.20;;;;;;;4.06;49.27;101109.29;106096;1276;111922;-93
2022/03/25 03:12:10;;;;;;;39.90;24.10;;;;;;;4.02;49.36;101109.26;106061;1276;137856;-92
2022/03/25 03:14:43;;;;;;;43.00;23.50;;;;;;;3.99;49.55;101111.65;106023;1276;107936;-92
2022/03/25 03:17:15;;;;;;;48.70;25.50;;;;;;;3.95;49.65;101112.30;105911;1276;138716;-91
2022/03/25 03:19:47;;;;;;;39.50;23.10;;;;;;;3.91;49.70;101118.61;106021;1276;97853;-94
2022/03/25 03:22:19;;;;;;;44.00;24.20;;;;;;;3.88;49.87;101116.70;106025;1276;112840;-93
2022/03/25 03:24:52;;;;;;;43.90;24.50;;;;;;;3.85;49.93;101117.20;106042;1276;137796;-92
2022/03/25 03:27:24;;;;;;;44.90;23.50;;;;;;;3.83;49.95;101120.96;106089;1276;106731;-92
2022/03/25 03:29:58;;;;;;;41.70;23.50;;;;;;;3.80;50.10;101116.30;106063;1276;137991;-90
2022/03/25 03:32:30;;;;;;;42.20;23.70;;;;;;;3.75;50.02;101121.05;106104;1276;97893;-91
2022/03/25 03:35:03;;;;;;;40.00;23.20;;;;;;;3.71;50.10;101123.41;105994;1276;138457;-94
2022/03/25 03:37:42;;;;;;;39.90;23.50;;;;;;;3.67;50.35;101125.45;106360;1276;107786;-94
2022/03/25 03:40:16;;;;;;;40.00;22.60;;;;;;;3.62;50.37;101123.01;105997;1276;107829;-95
2022/03/25 03:42:49;;;;;;;41.10;23.80;;;;;;;3.59;50.41;101122.46;105893;1276;136650;-93
2022/03/25 03:45:21;;;;;;;41.30;22.70;;;;;;;3.59;50.46;101122.63;106071;1276;98590;-92
2022/03/25 03:47:53;;;;;;;36.90;22.90;;;;;;;3.57;50.50;101124.48;106070;1276;138261;-91
2022/03/25 03:50:25;;;;;;;38.30;23.70;;;;;;;3.56;50.53;101125.15;106198;1276;108195;-92
2022/03/25 03:52:58;;;;;;;40.30;22.90;;;;;;;3.52;50.54;101127.88;105975;1276;138314;-91
2022/03/25 03:55:30;;;;;;;38.70;23.50;;;;;;;3.48;50.72;101125.77;105964;1276;98320;-91
2022/03/25 03:58:22;;;;;;;36.80;22.80;;;;;;;3.46;50.70;101124.55;105901;1276;98002;-90
2022/03/25 04:00:54;;;;;;;39.90;23.80;;;;;;;3.45;50.75;101128.50;105855;1276;137557;-91
2022/03/25 04:03:29;;;;;;;40.50;23.00;;;;;;;3.44;50.77;101129.35;105890;1277;107791;-89
2022/03/25 04:06:02;;;;;;;41.30;23.10;;;;;;;3.43;50.84;101132.27;106013;1276;138084;-91
2022/03/25 04:08:35;;;;;;;39.80;22.10;;;;;;;3.43;50.75;101131.92;105972;1276;96030;-91
2022/03/25 04:11:07;;;;;;;39.00;22.80;;;;;;;3.44;50.78;101133.98;105896;1276;137839;-92
2022/03/25 04:13:39;;;;;;;38.00;22.10;;;;;;;3.43;50.86;101126.23;105809;1276;112708;-89
2022/03/25 04:16:12;;;;;;;39.30;22.70;;;;;;;3.44;50.73;101136.56;105999;1276;106603;-91
2022/03/25 04:18:45;;;;;;;35.20;21.30;;;;;;;3.43;50.73;101139.83;105974;1276;138015;-91
2022/03/25 04:21:18;;;;;;;38.10;22.60;;;;;;;3.44;50.87;101133.81;106082;1276;97933;-91
2022/03/25 04:23:50;;;;;;;42.30;23.00;;;;;;;3.43;50.90;101140.85;105904;1276;138197;-90
2022/03/25 04:26:24;;;;;;;37.60;22.30;;;;;;;3.43;51.01;101142.75;105853;1276;111511;-89
2022/03/25 04:28:56;;;;;;;37.70;22.30;;;;;;;3.43;50.90;101143.09;105736;1276;139076;-90
2022/03/25 04:31:28;;;;;;;36.20;22.50;;;;;;;3.44;51.03;101141.55;105993;1273;107688;-90
2022/03/25 04:34:00;;;;;;;39.30;22.20;;;;;;;3.45;51.05;101139.34;106081;1276;96398;-91
2022/03/25 04:36:34;;;;;;;36.40;21.80;;;;;;;3.47;51.03;101137.28;106065;1276;138147;-90
2022/03/25 04:39:06;;;;;;;38.80;22.10;;;;;;;3.48;51.00;101131.62;105967;1276;112791;-92
2022/03/25 04:41:38;;;;;;;39.00;23.10;;;;;;;3.52;50.97;101136.64;105982;1276;137903;-91
2022/03/25 04:44:11;;;;;;;36.60;23.20;;;;;;;3.56;50.97;101138.22;106034;1276;107833;-92
2022/03/25 04:46:43;;;;;;;40.00;22.40;;;;;;;3.61;51.00;101135.89;106124;1276;97945;-91
2022/03/25 04:49:15;;;;;;;42.00;23.90;;;;;;;3.66;50.86;101138.86;105992;1276;137509;-90
2022/03/25 04:51:48;;;;;;;42.30;23.60;;;;;;;3.72;50.97;101137.88;105993;1277;111468;-91
2022/03/25 04:54:20;;;;;;;37.70;22.80;;;;;;;3.79;50.91;101138.13;105971;1276;138284;-91
2022/03/25 04:56:52;;;;;;;38.60;22.20;;;;;;;3.90;50.59;101140.64;106086;1276;106958;-92
2022/03/25 04:59:24;;;;;;;39.50;22.60;;;;;;;4.04;50.62;101134.56;105940;1276;138094;-91
2022/03/25 05:01:56;;;;;;;34.70;21.50;;;;;;;4.24;50.40;101138.01;106021;1277;97829;-90
2022/03/25 05:04:29;;;;;;;39.40;21.70;;;;;;;4.54;49.93;101142.19;105831;1276;303190;-91
2022/03/25 05:07:01;;;;;;;37.20;21.90;;;;;;;5.04;49.29;101140.74;105948;1276;137864;-91
2022/03/25 05:09:34;;;;;;;38.40;21.60;;;;;;;5.75;48.65;101141.16;106085;1276;107742;-88
2022/03/25 05:12:07;;;;;;;39.70;22.30;;;;;;;6.62;47.81;101137.20;105934;1276;137970;-91
2022/03/25 05:14:40;;;;;;;34.10;20.80;;;;;;;7.55;46.60;101139.11;106067;1276;97870;-91
2022/03/25 05:17:12;;;;;;;35.30;21.50;;;;;;;8.49;45.41;101138.96;105911;1276;137942;-91
2022/03/25 05:20:05;;;;;;;36.60;22.60;;;;;;;9.43;44.12;101140.52;106089;1276;108468;-93
2022/03/25 05:22:38;;;;;;;39.50;21.20;;;;;;;10.54;42.67;101135.51;106126;1276;108512;-91
2022/03/25 05:25:12;;;;;;;29.20;20.60;;;;;;;11.54;41.55;101130.39;105908;1276;138467;-91
2022/03/25 05:27:48;;;;;;;30.20;20.90;;;;;;;12.47;39.86;101126.09;105923;1276;98023;-90
2022/03/25 05:30:23;;;;;;;34.00;20.60;;;;;;;13.37;38.58;101123.45;105749;1276;137953;-91
2022/03/25 05:32:56;;;;;;;37.40;20.80;;;;;;;14.32;37.37;101121.66;106017;1278;107687;-90
2022/03/25 05:35:29;;;;;;;31.90;19.80;;;;;;;15.32;36.34;101123.18;105945;1276;140097;-91
2022/03/25 05:38:01;;;;;;;36.30;20.90;;;;;;;16.52;34.87;101115.38;106054;1276;96185;-91
2022/03/25 05:40:33;;;;;;;31.00;20.80;;;;;;;17.77;33.44;101112.67;105838;1276;97840;-91
2022/03/25 05:43:07;;;;;;;36.80;20.60;;;;;;;19.20;32.24;101107.25;105775;1276;138593;-90
2022/03/25 05:45:40;;;;;;;34.10;20.60;;;;;;;20.71;30.58;101102.13;105728;1278;106594;-93
2022/03/25 05:48:30;;;;;;;33.90;21.80;;;;;;;22.09;29.17;101098.69;105782;1276;137552;-90
2022/03/25 05:51:23;;;;;;;34.00;21.40;;;;;;;23.21;27.22;101094.70;105846;1276;97722;-90
2022/03/25 05:54:04;;;;;;;30.90;19.90;;;;;;;24.04;25.84;101095.33;105884;1276;138588;-90
2022/03/25 05:56:49;;;;;;;34.20;20.50;;;;;;;24.61;24.80;101093.54;105862;1276;111378;-90
2022/03/25 05:59:35;;;;;;;30.30;19.90;;;;;;;25.32;23.93;101097.20;105668;1278;138353;-92
2022/03/25 06:02:33;;;;;;;31.60;19.00;;;;;;;25.88;23.24;101090.42;105840;1276;109764;-92
2022/03/25 06:05:18;;;;;;;36.60;19.60;;;;;;;26.42;22.08;101094.33;105879;1276;139035;-92
2022/03/25 06:07:50;;;;;;;30.10;20.20;;;;;;;26.94;21.76;101094.29;106034;1276;98704;-92
2022/03/25 06:10:22;;;;;;;28.50;18.90;;;;;;;27.26;20.70;101090.52;105822;1276;114553;-91
2022/03/25 06:12:54;;;;;;;34.40;21.70;;;;;;;27.56;20.13;101089.61;105743;1279;138449;-91
2022/03/25 06:15:28;;;;;;;35.70;21.30;;;;;;;27.79;19.47;101089.70;105868;1276;107991;-91
2022/03/25 06:18:00;;;;;;;32.50;20.90;;;;;;;28.05;19.33;101085.89;105906;1276;139257;-90
2022/03/25 06:20:32;;;;;;;34.00;20.00;;;;;;;28.32;18.90;101086.59;106044;1276;97083;-91
2022/03/25 06:23:05;;;;;;;31.80;21.90;;;;;;;28.61;18.66;101083.48;105975;1276;140563;-90
2022/03/25 06:25:38;;;;;;;29.60;19.40;;;;;;;28.99;18.11;101087.42;105878;1276;107906;-89
2022/03/25 06:28:10;;;;;;;32.90;19.90;;;;;;;29.23;17.73;101089.56;105779;1276;107793;-89
2022/03/25 06:30:43;;;;;;;31.40;19.60;;;;;;;29.54;17.36;101085.18;105752;1276;139696;-89
2022/03/25 06:33:19;;;;;;;27.70;19.60;;;;;;;29.96;17.09;101088.40;106300;1276;96555;-92
2022/03/25 06:35:51;;;;;;;28.00;20.00;;;;;;;30.51;16.67;101088.21;106027;1279;138672;-92
2022/03/25 06:38:24;;;;;;;24.30;18.70;;;;;;;31.17;16.38;101087.23;106097;1276;109096;-92
2022/03/25 06:40:59;;;;;;;27.50;17.70;;;;;;;31.86;16.01;101083.77;105970;1276;139395;-92
2022/03/25 06:43:32;;;;;;;28.00;19.20;;;;;;;32.43;15.20;101089.14;106280;1278;97859;-92
2022/03/25 06:46:06;;;;;;;34.00;19.80;;;;;;;32.73;14.89;101088.61;106274;1276;97015;-95
2022/03/25 06:48:39;;;;;;;31.40;19.20;;;;;;;32.69;14.65;101088.77;106239;1276;138204;-90
2022/03/25 06:51:12;;;;;;;32.20;19.40;;;;;;;32.81;14.28;101093.70;106095;1276;107856;-89
2022/03/25 06:53:45;;;;;;;32.90;19.50;;;;;;;33.03;14.07;101098.46;106149;1276;137004;-91
2022/03/25 06:56:18;;;;;;;40.00;20.30;;;;;;;33.36;13.88;101100.47;106141;1276;97944;-91
2022/03/25 06:58:52;;;;;;;40.50;19.30;;;;;;;33.61;13.54;101095.34;106373;1276;97841;-90
2022/03/25 07:01:26;;;;;;;31.40;20.60;;;;;;;33.77;13.61;101090.59;106040;1276;138260;-90
2022/03/25 07:03:59;;;;;;;26.30;19.50;;;;;;;34.21;13.39;101091.19;106274;1276;108473;-91
2022/03/25 07:06:33;;;;;;;33.20;21.40;;;;;;;34.73;13.09;101093.02;106104;1276;138138;-90
2022/03/25 07:09:07;;;;;;;29.10;20.00;;;;;;;34.82;12.69;101094.05;106225;1276;97713;-90
2022/03/25 07:11:41;;;;;;;27.00;19.60;;;;;;;34.86;12.86;101093.36;105876;1276;138097;-88
2022/03/25 07:14:13;;;;;;;30.30;19.10;;;;;;;34.93;12.60;101101.34;105890;1276;114874;-91
2022/03/25 07:16:45;;;;;;;30.00;19.50;;;;;;;35.11;12.39;101100.83;105910;1276;108194;-90
2022/03/25 07:19:18;;;;;;;34.10;20.20;;;;;;;35.33;12.37;101102.42;106068;1276;138184;-92
2022/03/25 07:21:50;;;;;;;32.10;19.70;;;;;;;35.47;12.05;101104.48;106165;1276;98079;-91
2022/03/25 07:24:23;;;;;;;29.90;19.20;;;;;;;35.26;12.08;101102.23;106044;1275;139594;-89
2022/03/25 07:26:55;;;;;;;32.80;20.10;;;;;;;35.24;11.94;101104.98;106028;1276;111296;-92
2022/03/25 07:29:27;;;;;;;29.20;21.00;;;;;;;35.27;11.68;101107.55;105880;1276;139182;-90
2022/03/25 07:31:59;;;;;;;35.00;21.90;;;;;;;34.98;11.85;101112.05;105918;1276;107846;-89
2022/03/25 07:34:34;;;;;;;34.00;20.80;;;;;;;34.81;11.81;101112.25;106118;1276;97611;-90
2022/03/25 07:37:06;;;;;;;36.90;20.50;;;;;;;34.92;12.04;101117.60;106063;1276;138750;-88
2022/03/25 07:39:38;;;;;;;31.00;20.40;;;;;;;35.07;11.86;101118.01;106129;1276;111403;-89
2022/03/25 07:42:10;;;;;;;26.40;19.20;;;;;;;34.95;11.54;101115.63;106023;1277;138016;-89
2022/03/25 07:44:43;;;;;;;30.10;20.00;;;;;;;34.76;11.66;101119.42;106139;1276;108363;-88
2022/03/25 07:47:15;;;;;;;25.70;19.20;;;;;;;35.02;11.78;101116.27;105989;1276;140058;-88
2022/03/25 07:49:47;;;;;;;27.00;19.20;;;;;;;35.43;11.59;101117.86;106177;1276;97997;-87
2022/03/25 07:52:19;;;;;;;31.50;20.60;;;;;;;35.68;11.76;101115.56;106179;1276;111864;-87
2022/03/25 07:54:56;;;;;;;28.60;18.90;;;;;;;35.79;11.60;101111.56;106077;1276;138060;-87
2022/03/25 07:57:29;;;;;;;30.60;19.90;;;;;;;35.58;11.53;101113.09;105963;1277;109254;-87
2022/03/25 08:00:01;;;;;;;26.80;18.70;;;;;;;35.56;11.50;101112.46;106008;1276;137975;-87
2022/03/25 08:02:36;;;;;;;25.60;18.00;;;;;;;35.43;11.28;101114.77;106140;1276;97664;-90
2022/03/25 08:05:13;;;;;;;30.30;18.50;;;;;;;35.35;11.30;101115.56;106123;1276;138971;-89
2022/03/25 08:07:48;;;;;;;24.90;19.40;;;;;;;35.50;11.29;101117.50;106102;1276;109463;-91
2022/03/25 08:10:23;;;;;;;21.60;17.70;;;;;;;35.62;11.08;101117.30;106027;1276;107772;-91
2022/03/25 08:12:56;;;;;;;29.90;18.20;;;;;;;35.83;11.19;101111.77;105928;1276;139634;-90
2022/03/25 08:15:32;;;;;;;28.60;18.50;;;;;;;35.52;10.85;101120.52;105863;1279;97877;-90
2022/03/25 08:18:06;;;;;;;33.10;18.20;;;;;;;35.38;11.17;101121.95;105874;1276;137962;-91
2022/03/25 08:20:41;;;;;;;27.90;18.90;;;;;;;35.50;11.07;101125.81;106184;1276;107815;-91
2022/03/25 08:27:48;;;;;;;25.70;17.70;;;;;;;35.57;10.99;101128.30;106970;1276;138650;-92
2022/03/25 08:29:01;;;;;;;27.10;18.10;;;;;;;35.19;11.03;101126.27;105729;1276;96689;-94
2022/03/25 08:31:49;;;;;;;26.30;18.20;;;;;;;34.87;10.87;101122.98;105930;1276;112366;-91
2022/03/25 08:34:22;;;;;;;22.30;17.50;;;;;;;34.66;11.03;101120.20;106041;1276;108874;-92
2022/03/25 08:36:54;;;;;;;28.10;17.50;;;;;;;34.70;11.46;101123.52;105977;1276;138203;-91
2022/03/25 08:39:26;;;;;;;21.80;16.20;;;;;;;34.73;11.16;101124.73;106063;1276;97918;-91
2022/03/25 08:41:58;;;;;;;39.30;30.80;;;;;;;34.80;11.27;101123.02;105922;1277;139891;-92
2022/03/25 08:44:30;;;;;;;21.60;16.70;;;;;;;34.99;11.24;101121.90;105995;1276;111965;-92
2022/03/25 08:47:03;;;;;;;23.00;17.80;;;;;;;35.23;10.98;101119.02;105945;1276;107696;-93
2022/03/25 08:49:35;;;;;;;28.00;16.90;;;;;;;35.58;11.25;101116.09;106396;1265;139559;-71
2022/03/25 08:56:15;;;;;;;29.00;17.70;;;;;;;35.39;10.95;101119.41;102466;1309;636283;-71
2022/03/25 08:58:47;;;;;;;29.60;17.70;;;;;;;35.19;10.93;101117.02;105310;1283;94373;-70
2022/03/25 09:01:19;;;;;;;27.80;17.90;;;;;;;35.09;11.05;101109.95;106170;1282;137056;-71
2022/03/25 09:03:52;;;;;;;25.20;17.60;;;;;;;35.04;11.14;101113.98;106852;1282;108295;-70
2022/03/25 09:06:25;;;;;;;26.20;17.00;;;;;;;35.06;11.28;101109.71;106787;1282;137629;-71
2022/03/25 09:08:57;;;;;;;22.60;17.20;;;;;;;35.32;11.16;101107.96;106196;1280;796678;-70
2022/03/25 09:11:30;;;;;;;27.20;17.20;;;;;;;35.52;11.13;101109.83;105677;1280;94557;-70
2022/03/25 09:14:02;;;;;;;24.40;15.70;;;;;;;35.53;10.98;101107.71;106935;1277;137349;-71
2022/03/25 09:16:34;;;;;;;19.20;14.90;;;;;;;35.21;10.89;101105.86;107376;1277;107653;-71
2022/03/25 09:19:06;;;;;;;21.80;15.30;;;;;;;34.93;11.00;101105.80;105661;1277;137371;-71
2022/03/25 09:21:38;;;;;;;24.90;16.20;;;;;;;34.79;11.09;101105.24;105816;1277;108914;-71
2022/03/25 09:24:10;;;;;;;22.20;15.80;;;;;;;34.61;11.09;101106.98;105679;1277;138488;-70
2022/03/25 09:26:42;;;;;;;24.80;16.40;;;;;;;34.25;11.10;101103.33;105806;1277;95031;-69
2022/03/25 09:29:14;;;;;;;26.60;17.20;;;;;;;34.07;11.28;101101.27;105799;1277;109738;-70
2022/03/25 09:31:46;;;;;;;23.70;17.30;;;;;;;33.93;11.26;101101.50;105756;1277;137509;-70
2022/03/25 09:37:23;;;;;;;21.50;17.20;;;;;;;33.28;11.37;101096.28;105653;1280;149817;-70
2022/03/25 09:39:56;;;;;;;25.60;17.40;;;;;;;32.88;11.70;101094.92;105756;1280;95089;-70
2022/03/25 09:42:29;;;;;;;26.20;17.80;;;;;;;32.73;11.90;101090.47;105607;1278;138552;-70
2022/03/25 09:45:04;;;;;;;25.50;17.40;;;;;;;32.60;11.95;101090.63;105834;1280;108183;-72
2022/03/25 09:47:36;;;;;;;25.70;18.10;;;;;;;32.14;12.03;101088.38;105853;1277;108880;-69
2022/03/25 09:50:12;;;;;;;31.70;18.50;;;;;;;31.57;12.14;101085.64;105712;1280;137894;-69
2022/03/25 09:52:45;;;;;;;24.10;16.60;;;;;;;31.23;12.29;101079.38;107200;1280;94558;-71
2022/03/25 09:55:41;;;;;;;23.40;18.30;;;;;;;31.06;12.78;101086.39;105924;1280;137082;-70
2022/03/25 09:58:18;;;;;;;23.50;18.00;;;;;;;30.91;12.89;101086.04;107259;1279;107885;-71
2022/03/25 10:00:53;;;;;;;28.20;18.00;;;;;;;30.62;12.72;101090.45;107178;1279;138217;-71
2022/03/25 10:03:33;;;;;;;26.00;18.40;;;;;;;30.06;13.01;101088.49;107227;1279;94046;-72
2022/03/25 10:06:10;;;;;;;21.20;17.30;;;;;;;29.60;13.19;101084.95;107187;1277;137320;-71
2022/03/25 10:08:57;;;;;;;24.20;17.70;;;;;;;29.31;13.40;101086.41;107622;1273;108801;-72
2022/03/25 10:11:31;;;;;;;23.70;17.30;;;;;;;28.94;13.71;101081.32;107639;1273;108819;-70
2022/03/25 10:14:18;;;;;;;27.00;17.20;;;;;;;28.56;13.84;101082.89;107508;1273;137497;-70
2022/03/25 10:16:53;;;;;;;27.70;17.60;;;;;;;28.60;14.03;101082.72;107665;1273;93362;-70
2022/03/25 10:19:26;;;;;;;26.80;18.30;;;;;;;28.59;14.25;101078.33;107472;1273;138135;-70
2022/03/25 10:22:00;;;;;;;23.90;17.40;;;;;;;28.44;14.04;101078.71;107660;1273;109856;-70
2022/03/25 10:24:40;;;;;;;28.20;17.30;;;;;;;27.90;14.19;101080.29;107516;1273;138240;-69
2022/03/25 10:27:23;;;;;;;28.80;18.20;;;;;;;27.80;14.49;101075.10;107548;1273;108256;-70
2022/03/25 10:29:55;;;;;;;26.20;16.80;;;;;;;28.00;14.83;101079.55;107489;1273;137869;-69
2022/03/25 10:32:28;;;;;;;26.10;18.00;;;;;;;28.02;14.70;101071.73;107661;1273;94134;-70
2022/03/25 10:35:07;;;;;;;25.90;16.70;;;;;;;27.92;14.58;101075.23;107621;1273;109788;-69
2022/03/25 10:37:54;;;;;;;31.10;19.70;;;;;;;27.80;14.67;101066.44;107470;1273;137816;-70
2022/03/25 10:40:27;;;;;;;30.50;20.40;;;;;;;27.81;15.04;101068.67;107060;1270;109124;-69
2022/03/25 10:43:10;;;;;;;26.20;18.00;;;;;;;27.88;14.91;101065.69;106096;1270;137683;-69
2022/03/25 10:45:43;;;;;;;24.50;17.60;;;;;;;27.75;15.09;101065.38;106212;1270;95290;-70
2022/03/25 10:48:17;;;;;;;30.30;19.40;;;;;;;27.47;15.13;101066.15;106194;1270;137433;-70
2022/03/25 10:51:03;;;;;;;28.00;18.70;;;;;;;27.29;15.27;101063.72;107736;1270;107776;-70
2022/03/25 10:53:36;;;;;;;29.70;19.40;;;;;;;26.79;15.33;101073.08;107749;1270;108722;-70
2022/03/25 10:56:11;;;;;;;31.10;18.50;;;;;;;26.34;15.72;101066.25;107709;1270;137679;-70
2022/03/25 10:58:53;;;;;;;33.90;19.80;;;;;;;26.04;15.80;101066.87;107857;1270;93342;-70
2022/03/25 11:01:25;;;;;;;25.80;18.50;;;;;;;25.82;16.34;101062.10;107695;1270;137958;-70
2022/03/25 11:03:58;;;;;;;29.40;19.10;;;;;;;25.76;16.30;101057.83;107867;1269;108074;-70
2022/03/25 11:06:31;;;;;;;26.40;18.50;;;;;;;25.77;16.41;101058.80;107679;1270;138159;-71
2022/03/25 11:09:03;;;;;;;27.70;17.90;;;;;;;25.77;16.59;101058.63;107833;1270;93347;-70
2022/03/25 11:11:37;;;;;;;32.50;21.00;;;;;;;25.65;16.50;101050.65;107533;1270;94518;-70
2022/03/25 11:14:10;;;;;;;27.60;17.10;;;;;;;25.59;16.78;101052.02;106173;1271;137681;-72
2022/03/25 11:16:43;;;;;;;33.00;20.80;;;;;;;25.51;16.71;101046.65;106254;1270;107923;-72
2022/03/25 11:19:17;;;;;;;28.00;17.50;;;;;;;25.27;16.98;101050.96;106208;1270;138544;-70
2022/03/25 11:21:51;;;;;;;29.30;18.80;;;;;;;25.05;16.86;101046.13;106322;1270;95204;-71
2022/03/25 11:24:30;;;;;;;28.10;19.30;;;;;;;24.79;16.91;101044.83;106271;1271;137547;-71
2022/03/25 11:27:08;;;;;;;29.80;19.60;;;;;;;24.57;17.12;101039.59;107866;1270;109863;-71
2022/03/25 11:29:46;;;;;;;35.60;22.70;;;;;;;24.50;17.53;101038.37;107526;1269;108889;-71
2022/03/25 11:32:19;;;;;;;32.10;20.50;;;;;;;24.60;17.68;101031.73;107679;1270;137470;-70
2022/03/25 11:35:19;;;;;;;32.50;20.80;;;;;;;24.58;17.37;101035.56;107692;1270;94155;-71
2022/03/25 11:38:19;;;;;;;31.30;19.60;;;;;;;24.37;17.34;101030.89;106638;1271;137212;-71
2022/03/25 11:40:53;;;;;;;23.10;16.30;;;;;;;24.15;17.29;101030.54;107811;1270;109850;-71
2022/03/25 11:43:28;;;;;;;34.70;21.20;;;;;;;23.95;17.24;101023.00;107770;1270;137787;-71
2022/03/25 11:46:09;;;;;;;28.60;17.70;;;;;;;23.87;17.52;101024.36;107834;1270;108901;-71
2022/03/25 11:48:42;;;;;;;24.40;18.20;;;;;;;23.80;17.62;101027.38;107571;1270;138211;-71
2022/03/25 11:51:34;;;;;;;30.90;20.10;;;;;;;23.82;17.92;101024.52;107815;1270;94684;-71
2022/03/25 11:54:40;;;;;;;34.70;21.80;;;;;;;23.93;17.83;101018.05;107426;1270;137695;-70
2022/03/25 11:57:26;;;;;;;34.40;21.20;;;;;;;23.81;17.83;101022.15;106296;1270;108161;-71
2022/03/25 12:00:00;;;;;;;30.20;20.40;;;;;;;23.64;17.88;101020.80;106182;1270;137837;-70
2022/03/25 12:02:35;;;;;;;32.60;18.80;;;;;;;23.43;17.77;101022.83;107785;1270;93373;-70
2022/03/25 12:05:56;;;;;;;27.00;17.20;;;;;;;23.01;17.77;101016.84;107536;1270;94005;-71
2022/03/25 12:08:32;;;;;;;32.90;19.10;;;;;;;22.45;17.95;101014.23;106752;1270;139655;-71
2022/03/25 12:11:06;;;;;;;30.30;20.80;;;;;;;22.28;18.57;101013.86;107866;1270;107758;-70
2022/03/25 12:14:10;;;;;;;31.70;18.10;;;;;;;22.19;18.65;101014.11;107711;1270;137885;-73
2022/03/25 12:17:03;;;;;;;34.40;19.00;;;;;;;22.08;18.65;101011.48;107472;1270;94071;-69